Terminal Aerodrome Forecast
Issued by NWS Cleveland, OH

Home | Current Version | Previous Version | Text Only | Print | Product List | Glossary Off
Versions: 1 2 3 4 5 6 7 8 9 10 11 12 13 14 15 16 17 18 19 20 21

000
FTUS41 KCLE 010310 AAA
TAFMFD
TAF AMD
KMFD 010310Z 0103/0124 36015KT P6SM BKN006 OVC015
     FM011500 02012KT P6SM BKN008 OVC012
     FM012000 04010KT P6SM BKN012 OVC200=

USA.gov is the U.S. government's official web portal to all federal, state and local government web resources and services.